createdAt,value
2023-04-05T00:02:13.819Z,102412.38
2023-04-05T00:04:52.104Z,102408.03
2023-04-05T00:07:19.335Z,102408.41
2023-04-05T00:09:46.197Z,102414.75
2023-04-05T00:12:12.561Z,102412.81
2023-04-05T00:14:39.004Z,102415.88
2023-04-05T00:17:05.550Z,102416.16
2023-04-05T00:19:34.035Z,102412.34
2023-04-05T00:22:00.633Z,102419.28
2023-04-05T00:24:29.479Z,102418.47
2023-04-05T00:26:56.782Z,102419.41
2023-04-05T00:29:23.344Z,102408.97
2023-04-05T00:31:49.929Z,102412.31
2023-04-05T00:34:16.608Z,102417.91
2023-04-05T00:36:42.977Z,102412.41
2023-04-05T00:39:09.358Z,102410.53
2023-04-05T00:41:36.701Z,102414.19
2023-04-05T00:44:03.908Z,102407.16
2023-04-05T00:46:30.589Z,102411.91
2023-04-05T00:48:57.066Z,102404.84
2023-04-05T00:51:24.114Z,102405.81
2023-04-05T00:53:52.832Z,102400.78
2023-04-05T00:56:21.625Z,102400.66
2023-04-05T00:58:48.650Z,102405.09
2023-04-05T01:01:22.413Z,102403.59
2023-04-05T01:04:02.982Z,102403.09
2023-04-05T01:06:42.165Z,102394.31
2023-04-05T01:09:31.137Z,102391.91
2023-04-05T01:11:59.323Z,102384.50
2023-04-05T01:14:25.717Z,102379.47
2023-04-05T01:16:57.880Z,102387.56
2023-04-05T01:19:28.925Z,102386.19
2023-04-05T01:22:26.286Z,102387.66
2023-04-05T01:25:31.123Z,102381.28
2023-04-05T01:28:16.942Z,102387.75
2023-04-05T01:30:50.002Z,102385.50
2023-04-05T01:33:35.076Z,102380.28
2023-04-05T01:36:27.000Z,102376.56
2023-04-05T01:38:54.132Z,102380.41
2023-04-05T01:41:21.699Z,102380.75
2023-04-05T01:43:49.000Z,102384.56
2023-04-05T01:46:15.519Z,102377.88
2023-04-05T01:48:41.946Z,102373.16
2023-04-05T01:51:08.346Z,102371.09
2023-04-05T01:53:34.738Z,102375.44
2023-04-05T01:56:01.738Z,102367.44
2023-04-05T01:58:28.414Z,102374.38
2023-04-05T02:00:58.536Z,102367.88
2023-04-05T02:03:25.169Z,102368.22
2023-04-05T02:05:52.041Z,102355.59
2023-04-05T02:08:18.664Z,102359.13
2023-04-05T02:10:45.759Z,102362.97
2023-04-05T02:13:13.682Z,102366.22
2023-04-05T02:15:40.613Z,102357.31
2023-04-05T02:18:08.007Z,102355.38
2023-04-05T02:20:34.642Z,102353.69
2023-04-05T02:23:02.156Z,102363.25
2023-04-05T02:25:28.686Z,102355.50
2023-04-05T02:27:55.340Z,102350.69
2023-04-05T02:30:21.741Z,102357.81
2023-04-05T02:32:48.206Z,102350.56
2023-04-05T02:35:17.117Z,102351.53
2023-04-05T02:37:43.534Z,102357.69
2023-04-05T02:40:14.858Z,102351.53
2023-04-05T02:42:42.084Z,102349.28
2023-04-05T02:45:08.761Z,102341.09
2023-04-05T02:47:35.271Z,102346.25
2023-04-05T02:50:01.803Z,102349.63
2023-04-05T02:52:28.422Z,102345.91
2023-04-05T02:54:54.856Z,102340.09
2023-04-05T02:57:21.309Z,102340.56
2023-04-05T02:59:47.763Z,102337.13
2023-04-05T03:02:14.151Z,102342.56
2023-04-05T03:04:41.052Z,102343.22
2023-04-05T03:07:08.021Z,102345.97
2023-04-05T03:09:34.716Z,102338.31
2023-04-05T03:12:02.402Z,102336.41
2023-04-05T03:14:28.936Z,102341.72
2023-04-05T03:16:55.358Z,102340.63
2023-04-05T03:19:22.471Z,102339.38
2023-04-05T03:21:49.010Z,102338.66
2023-04-05T03:24:16.098Z,102337.41
2023-04-05T03:26:46.314Z,102332.84
2023-04-05T03:29:12.800Z,102336.38
2023-04-05T03:31:39.216Z,102339.97
2023-04-05T03:34:05.674Z,102339.91
2023-04-05T03:36:41.816Z,102339.97
2023-04-05T03:39:12.464Z,102333.94
2023-04-05T03:41:41.907Z,102330.72
2023-04-05T03:44:09.001Z,102334.38
2023-04-05T03:46:37.862Z,102333.47
2023-04-05T03:49:04.684Z,102329.34
2023-04-05T03:51:31.204Z,102330.41
2023-04-05T03:53:57.646Z,102321.59
2023-04-05T03:56:24.084Z,102324.56
2023-04-05T03:58:50.684Z,102319.78
2023-04-05T04:01:17.062Z,102321.19
2023-04-05T04:03:43.382Z,102326.31
2023-04-05T04:06:09.764Z,102319.81
2023-04-05T04:08:36.336Z,102320.91
2023-04-05T04:11:02.663Z,102322.97
2023-04-05T04:13:28.960Z,102325.09
2023-04-05T04:15:55.317Z,102324.41
2023-04-05T04:18:21.673Z,102325.47
2023-04-05T04:20:48.171Z,102318.81
2023-04-05T04:23:16.257Z,102322.88
2023-04-05T04:25:46.080Z,102321.84
2023-04-05T04:28:12.988Z,102312.56
2023-04-05T04:30:39.426Z,102329.34
2023-04-05T04:33:09.133Z,102328.50
2023-04-05T04:35:38.911Z,102320.44
2023-04-05T04:38:06.015Z,102319.34
2023-04-05T04:40:40.599Z,102321.59
2023-04-05T04:43:10.179Z,102318.78
2023-04-05T04:45:37.781Z,102331.13
2023-04-05T04:48:08.165Z,102321.59
2023-04-05T04:50:35.245Z,102327.34
2023-04-05T04:53:02.145Z,102322.72
2023-04-05T04:55:28.921Z,102318.44
2023-04-05T04:57:55.801Z,102320.13
2023-04-05T05:00:23.863Z,102323.84
2023-04-05T05:02:53.842Z,102323.94
2023-04-05T05:05:22.853Z,102323.56
2023-04-05T05:07:49.795Z,102330.50
2023-04-05T05:10:16.523Z,102332.09
2023-04-05T05:12:43.260Z,102329.69
2023-04-05T05:15:10.228Z,102333.53
2023-04-05T05:17:37.445Z,102332.88
2023-04-05T05:20:10.678Z,102341.78
2023-04-05T05:22:40.501Z,102330.75
2023-04-05T05:25:08.692Z,102337.16
2023-04-05T05:27:35.285Z,102329.34
2023-04-05T05:30:02.066Z,102321.00
2023-04-05T05:32:28.849Z,102326.38
2023-04-05T05:34:55.325Z,102325.56
2023-04-05T05:37:40.363Z,102332.13
2023-04-05T05:40:07.603Z,102327.53
2023-04-05T05:42:34.157Z,102329.06
2023-04-05T05:45:05.324Z,102327.56
2023-04-05T05:47:32.391Z,102324.13
2023-04-05T05:49:58.895Z,102326.06
2023-04-05T05:52:25.314Z,102328.03
2023-04-05T05:54:51.915Z,102328.88
2023-04-05T05:57:18.326Z,102322.88
2023-04-05T05:59:44.708Z,102320.59
2023-04-05T06:02:11.363Z,102331.19
2023-04-05T06:04:37.974Z,102323.75
2023-04-05T06:07:04.552Z,102327.63
2023-04-05T06:09:33.832Z,102324.59
2023-04-05T06:12:01.003Z,102330.00
2023-04-05T06:14:28.951Z,102325.50
2023-04-05T06:16:55.799Z,102333.94
2023-04-05T06:19:22.477Z,102328.66
2023-04-05T06:21:48.894Z,102333.25
2023-04-05T06:24:15.371Z,102326.72
2023-04-05T06:26:41.837Z,102328.69
2023-04-05T06:29:08.524Z,102324.91
2023-04-05T06:31:36.105Z,102322.28
2023-04-05T06:34:02.930Z,102321.56
2023-04-05T06:36:34.152Z,102321.94
2023-04-05T06:39:00.995Z,102320.41
2023-04-05T06:41:30.656Z,102331.13
2023-04-05T06:43:57.089Z,102326.50
2023-04-05T06:46:24.099Z,102328.78
2023-04-05T06:48:52.118Z,102330.31
2023-04-05T06:51:18.790Z,102327.22
2023-04-05T06:53:45.354Z,102333.31
2023-04-05T06:56:12.341Z,102331.78
2023-04-05T06:58:38.831Z,102334.78
2023-04-05T07:01:06.027Z,102328.22
2023-04-05T07:03:32.961Z,102331.16
2023-04-05T07:06:00.516Z,102331.13
2023-04-05T07:08:28.019Z,102325.09
2023-04-05T07:10:55.158Z,102326.31
2023-04-05T07:13:22.998Z,102330.41
2023-04-05T07:15:49.523Z,102327.88
2023-04-05T07:18:15.943Z,102325.50
2023-04-05T07:20:42.661Z,102323.03
2023-04-05T07:23:09.620Z,102321.63
2023-04-05T07:25:36.114Z,102325.94
2023-04-05T07:28:02.903Z,102328.91
2023-04-05T07:30:32.037Z,102321.09
2023-04-05T07:32:58.607Z,102318.53
2023-04-05T07:35:25.376Z,102313.44
2023-04-05T07:37:52.325Z,102308.38
2023-04-05T07:40:18.946Z,102313.94
2023-04-05T07:42:45.643Z,102300.91
2023-04-05T07:45:12.081Z,102311.94
2023-04-05T07:47:38.522Z,102315.88
2023-04-05T07:50:07.068Z,102304.59
2023-04-05T07:52:33.526Z,102308.69
2023-04-05T07:55:00.161Z,102323.63
2023-04-05T07:57:26.569Z,102318.91
2023-04-05T07:59:54.837Z,102317.19
2023-04-05T08:02:21.498Z,102324.66
2023-04-05T08:04:48.047Z,102326.09
2023-04-05T08:07:14.611Z,102321.50
2023-04-05T08:09:41.594Z,102324.59
2023-04-05T08:12:08.112Z,102325.16
2023-04-05T08:14:34.513Z,102322.28
2023-04-05T08:17:01.175Z,102318.81
2023-04-05T08:19:27.729Z,102311.25
2023-04-05T08:21:54.169Z,102312.59
2023-04-05T08:24:20.620Z,102319.00
2023-04-05T08:26:47.183Z,102314.50
2023-04-05T08:29:13.609Z,102310.50
2023-04-05T08:31:40.083Z,102305.00
2023-04-05T08:34:08.322Z,102308.59
2023-04-05T08:36:34.815Z,102308.06
2023-04-05T08:39:01.183Z,102306.91
2023-04-05T08:41:34.238Z,102313.34
2023-04-05T08:44:05.476Z,102306.22
2023-04-05T08:46:34.478Z,102302.41
2023-04-05T08:49:06.040Z,102301.31
2023-04-05T08:51:33.328Z,102296.63
2023-04-05T08:54:00.934Z,102298.84
2023-04-05T08:56:32.523Z,102294.59
2023-04-05T08:59:03.769Z,102291.03
2023-04-05T09:01:31.819Z,102296.84
2023-04-05T09:04:01.140Z,102302.31
2023-04-05T09:06:28.715Z,102299.22
2023-04-05T09:08:58.507Z,102296.84
2023-04-05T09:11:25.664Z,102300.91
2023-04-05T09:13:52.153Z,102307.81
2023-04-05T09:16:19.554Z,102299.03
2023-04-05T09:18:45.981Z,102301.88
2023-04-05T09:21:13.318Z,102297.72
2023-04-05T09:23:52.088Z,102303.44
2023-04-05T09:26:24.131Z,102306.13
2023-04-05T09:28:50.998Z,102298.03
2023-04-05T09:31:34.653Z,102290.28
2023-04-05T09:34:05.441Z,102295.53
2023-04-05T09:36:35.892Z,102295.00
2023-04-05T09:39:07.030Z,102296.06
2023-04-05T09:41:34.790Z,102297.59
2023-04-05T09:44:01.361Z,102293.47
2023-04-05T09:46:39.997Z,102285.03
2023-04-05T09:49:09.280Z,102292.63
2023-04-05T09:51:38.325Z,102299.66
2023-04-05T09:54:04.937Z,102279.84
2023-04-05T09:56:39.492Z,102271.75
2023-04-05T09:59:11.336Z,102275.50
2023-04-05T10:01:41.200Z,102272.59
2023-04-05T10:04:08.143Z,102269.47
2023-04-05T10:06:44.003Z,102271.59
2023-04-05T10:09:12.054Z,102272.69
2023-04-05T10:11:38.960Z,102267.78
2023-04-05T10:14:07.188Z,102269.03
2023-04-05T10:16:38.772Z,102262.19
2023-04-05T10:19:06.354Z,102258.50
2023-04-05T10:21:35.865Z,102249.19
2023-04-05T10:24:27.130Z,102253.41
2023-04-05T10:27:06.515Z,102255.97
2023-04-05T10:29:41.940Z,102250.38
2023-04-05T10:32:23.669Z,102259.53
2023-04-05T10:34:57.692Z,102251.38
2023-04-05T10:37:48.381Z,102255.72
2023-04-05T10:40:16.477Z,102246.22
2023-04-05T10:42:46.352Z,102246.56
2023-04-05T10:45:15.772Z,102249.84
2023-04-05T10:47:58.229Z,102243.97
2023-04-05T10:50:25.460Z,102244.94
2023-04-05T10:52:53.197Z,102242.72
2023-04-05T10:55:21.517Z,102239.25
2023-04-05T10:57:48.954Z,102242.19
2023-04-05T11:00:15.851Z,102232.19
2023-04-05T11:02:42.713Z,102239.69
2023-04-05T11:05:33.825Z,102229.72
2023-04-05T11:08:04.001Z,102232.13
2023-04-05T11:10:30.683Z,102215.75
2023-04-05T11:12:57.224Z,102213.56
2023-04-05T11:15:29.893Z,102212.63
2023-04-05T11:18:28.889Z,102211.97
2023-04-05T11:21:07.753Z,102214.28
2023-04-05T11:24:00.713Z,102209.59
2023-04-05T11:26:48.818Z,102204.38
2023-04-05T11:29:16.032Z,102201.47
2023-04-05T11:32:01.670Z,102203.19
2023-04-05T11:34:28.240Z,102190.78
2023-04-05T11:36:55.004Z,102184.16
2023-04-05T11:39:21.480Z,102188.97
2023-04-05T11:42:23.160Z,102186.69
2023-04-05T11:44:51.683Z,102180.47
2023-04-05T11:47:21.426Z,102185.53
2023-04-05T11:49:51.702Z,102178.19
2023-04-05T11:52:19.745Z,102181.09
2023-04-05T11:54:46.953Z,102176.84
2023-04-05T11:57:16.100Z,102178.97
2023-04-05T11:59:42.837Z,102166.50
2023-04-05T12:02:09.496Z,102165.84
2023-04-05T12:04:37.022Z,102167.75
2023-04-05T12:07:19.899Z,102164.38
2023-04-05T12:10:08.241Z,102165.34
2023-04-05T12:12:39.978Z,102161.66
2023-04-05T12:15:11.697Z,102160.41
2023-04-05T12:17:49.393Z,102156.03
2023-04-05T12:20:17.399Z,102157.50
2023-04-05T12:22:45.394Z,102157.09
2023-04-05T12:25:12.226Z,102155.47
2023-04-05T12:27:39.288Z,102146.84
2023-04-05T12:30:17.543Z,102153.59
2023-04-05T12:32:54.924Z,102147.59
2023-04-05T12:35:32.154Z,102146.41
2023-04-05T12:37:59.472Z,102144.31
2023-04-05T12:40:27.700Z,102142.59
2023-04-05T12:43:10.090Z,102136.47
2023-04-05T12:45:43.717Z,102127.25
2023-04-05T12:48:13.601Z,102134.38
2023-04-05T12:50:45.004Z,102130.19
2023-04-05T12:53:20.239Z,102124.28
2023-04-05T12:55:52.064Z,102128.19
2023-04-05T12:58:19.738Z,102128.88
2023-04-05T13:00:46.611Z,102121.09
2023-04-05T13:03:21.474Z,102113.16
2023-04-05T13:05:51.055Z,102112.53
2023-04-05T13:08:21.319Z,102104.63
2023-04-05T13:10:49.304Z,102101.75
2023-04-05T13:13:17.051Z,102101.00
2023-04-05T13:15:44.281Z,102091.44
2023-04-05T13:18:10.930Z,102089.84
2023-04-05T13:20:37.695Z,102095.63
2023-04-05T13:23:04.151Z,102093.72
2023-04-05T13:25:30.782Z,102087.97
2023-04-05T13:27:57.277Z,102083.41
2023-04-05T13:30:23.714Z,102084.63
2023-04-05T13:32:50.237Z,102081.50
2023-04-05T13:35:16.650Z,102073.75
2023-04-05T13:37:43.095Z,102075.19
2023-04-05T13:40:09.956Z,102071.19
2023-04-05T13:42:36.468Z,102065.28
2023-04-05T13:45:03.061Z,102060.16
2023-04-05T13:47:29.537Z,102064.66
2023-04-05T13:49:56.319Z,102060.63
2023-04-05T13:52:22.866Z,102064.19
2023-04-05T13:54:49.304Z,102067.88
2023-04-05T13:57:28.661Z,102067.53
2023-04-05T13:59:55.416Z,102053.19
2023-04-05T14:02:25.731Z,102065.38
2023-04-05T14:04:53.121Z,102058.03
2023-04-05T14:07:20.617Z,102053.63
2023-04-05T14:09:47.075Z,102055.22
2023-04-05T14:14:40.477Z,102057.97
2023-04-05T14:17:07.693Z,102054.13
2023-04-05T14:19:34.231Z,102050.53
2023-04-05T14:22:00.605Z,102044.69
2023-04-05T14:24:27.051Z,102048.13
2023-04-05T14:26:53.814Z,102047.81
2023-04-05T14:29:20.423Z,102041.75
2023-04-05T14:31:46.951Z,102039.38
2023-04-05T14:34:13.863Z,102038.03
2023-04-05T14:36:40.953Z,102039.81
2023-04-05T14:39:07.338Z,102028.72
2023-04-05T14:41:34.909Z,102025.09
2023-04-05T14:44:01.403Z,102027.75
2023-04-05T14:46:27.780Z,102032.16
2023-04-05T14:48:54.239Z,102033.38
2023-04-05T14:51:20.744Z,102025.09
2023-04-05T14:53:47.190Z,102020.91
2023-04-05T14:56:13.836Z,102017.53
2023-04-05T14:58:40.310Z,102010.22
2023-04-05T15:01:09.850Z,102010.28
2023-04-05T15:03:37.611Z,102006.72
2023-04-05T15:06:05.237Z,102014.63
2023-04-05T15:08:32.045Z,102010.53
2023-04-05T15:10:58.685Z,102006.00
2023-04-05T15:13:26.798Z,102005.34
2023-04-05T15:15:53.607Z,101994.56
2023-04-05T15:18:20.277Z,101992.63
2023-04-05T15:20:46.802Z,102002.78
2023-04-05T15:23:13.539Z,102004.06
2023-04-05T15:25:40.048Z,101999.28
2023-04-05T15:28:07.149Z,101994.84
2023-04-05T15:30:33.645Z,102005.84
2023-04-05T15:33:00.473Z,102003.69
2023-04-05T15:35:27.112Z,102008.53
2023-04-05T15:37:53.524Z,102003.13
2023-04-05T15:40:20.325Z,101994.19
2023-04-05T15:42:46.867Z,101991.22
2023-04-05T15:45:13.559Z,101983.88
2023-04-05T15:47:40.322Z,101988.38
2023-04-05T15:50:07.451Z,101991.19
2023-04-05T15:52:35.543Z,101983.59
2023-04-05T15:55:02.444Z,101980.56
2023-04-05T15:57:29.144Z,101972.13
2023-04-05T15:59:55.659Z,101961.31
2023-04-05T16:02:22.148Z,101965.56
2023-04-05T16:04:48.870Z,101957.00
2023-04-05T16:07:16.539Z,101957.50
2023-04-05T16:09:43.063Z,101959.91
2023-04-05T16:12:09.513Z,101953.63
2023-04-05T16:14:36.089Z,101963.97
2023-04-05T16:17:02.914Z,101962.34
2023-04-05T16:19:31.586Z,101949.28
2023-04-05T16:21:58.169Z,101960.13
2023-04-05T16:24:26.666Z,101949.47
2023-04-05T16:26:53.395Z,101954.63
2023-04-05T16:29:19.804Z,101947.78
2023-04-05T16:31:47.401Z,101955.19
2023-04-05T16:34:14.138Z,101947.94
2023-04-05T16:36:41.353Z,101949.94
2023-04-05T16:39:07.945Z,101942.78
2023-04-05T16:41:36.127Z,101944.22
2023-04-05T16:44:03.286Z,101944.78
2023-04-05T16:46:32.078Z,101936.09
2023-04-05T16:48:59.739Z,101938.50
2023-04-05T16:51:27.602Z,101937.47
2023-04-05T16:53:54.535Z,101943.59
2023-04-05T16:56:21.332Z,101940.31
2023-04-05T16:58:47.833Z,101936.81
2023-04-05T17:01:14.282Z,101943.38
2023-04-05T17:03:42.366Z,101938.28
2023-04-05T17:06:11.078Z,101931.97
2023-04-05T17:08:37.445Z,101927.09
2023-04-05T17:11:04.091Z,101928.28
2023-04-05T17:13:30.558Z,101934.53
2023-04-05T17:15:57.030Z,101924.84
2023-04-05T17:18:23.546Z,101927.84
2023-04-05T17:20:49.972Z,101928.03
2023-04-05T17:23:16.469Z,101933.47
2023-04-05T17:25:43.026Z,101926.69
2023-04-05T17:28:09.781Z,101925.78
2023-04-05T17:30:36.266Z,101937.97
2023-04-05T17:33:02.674Z,101929.91
2023-04-05T17:35:29.243Z,101932.22
2023-04-05T17:37:55.675Z,101928.91
2023-04-05T17:40:22.200Z,101928.28
2023-04-05T17:42:48.604Z,101926.91
2023-04-05T17:45:15.013Z,101934.06
2023-04-05T17:47:41.726Z,101930.56
2023-04-05T17:50:08.554Z,101935.31
2023-04-05T17:52:34.937Z,101927.25
2023-04-05T17:55:01.751Z,101926.16
2023-04-05T17:57:28.226Z,101924.47
2023-04-05T17:59:54.973Z,101925.16
2023-04-05T18:02:21.544Z,101928.69
2023-04-05T18:04:48.187Z,101929.50
2023-04-05T18:07:14.589Z,101920.78
2023-04-05T18:09:42.386Z,101929.09
2023-04-05T18:12:09.372Z,101933.31
2023-04-05T18:14:36.891Z,101933.84
2023-04-05T18:17:09.380Z,101931.06
2023-04-05T18:19:35.912Z,101935.69
2023-04-05T18:22:02.357Z,101934.06
2023-04-05T18:24:29.448Z,101933.13
2023-04-05T18:26:56.049Z,101933.06
2023-04-05T18:29:28.034Z,101939.31
2023-04-05T18:31:55.751Z,101935.84
2023-04-05T18:34:22.267Z,101935.22
2023-04-05T18:36:48.660Z,101946.31
2023-04-05T18:39:15.262Z,101945.69
2023-04-05T18:41:41.667Z,101947.09
2023-04-05T18:44:08.834Z,101957.63
2023-04-05T18:46:35.385Z,101951.31
2023-04-05T18:49:01.914Z,101947.34
2023-04-05T18:51:28.537Z,101952.72
2023-04-05T18:53:54.953Z,101958.72
2023-04-05T18:56:21.416Z,101957.75
2023-04-05T18:58:47.977Z,101957.53
2023-04-05T19:01:16.009Z,101964.41
2023-04-05T19:03:42.850Z,101955.31
2023-04-05T19:06:09.710Z,101961.69
2023-04-05T19:08:36.176Z,101965.91
2023-04-05T19:11:02.682Z,101960.72
2023-04-05T19:13:29.125Z,101971.28
2023-04-05T19:15:55.720Z,101959.25
2023-04-05T19:18:25.670Z,101972.19
2023-04-05T19:20:57.086Z,101974.50
2023-04-05T19:23:25.461Z,101974.44
2023-04-05T19:25:52.104Z,101974.47
2023-04-05T19:28:18.498Z,101971.03
2023-04-05T19:30:46.177Z,101979.53
2023-04-05T19:33:13.174Z,101970.34
2023-04-05T19:35:40.027Z,101973.91
2023-04-05T19:38:06.528Z,101973.28
2023-04-05T19:40:33.240Z,101982.41
2023-04-05T19:43:01.856Z,101971.81
2023-04-05T19:45:32.573Z,101976.78
2023-04-05T19:48:00.897Z,101975.56
2023-04-05T19:50:45.566Z,101972.59
2023-04-05T19:53:32.283Z,101971.22
2023-04-05T19:55:58.655Z,101968.75
2023-04-05T19:58:28.218Z,101974.63
2023-04-05T20:00:55.411Z,101972.72
2023-04-05T20:03:32.644Z,101978.59
2023-04-05T20:06:10.339Z,101975.34
2023-04-05T20:08:39.156Z,101972.44
2023-04-05T20:11:15.956Z,101971.38
2023-04-05T20:13:44.620Z,101977.06
2023-04-05T20:16:12.592Z,101976.66
2023-04-05T20:18:39.473Z,101970.19
2023-04-05T20:21:06.876Z,101972.13
2023-04-05T20:23:33.340Z,101972.78
2023-04-05T20:25:59.796Z,101964.75
2023-04-05T20:28:35.566Z,101961.56
2023-04-05T20:31:02.808Z,101963.56
2023-04-05T20:33:41.856Z,101959.88
2023-04-05T20:36:11.781Z,101948.06
2023-04-05T20:38:42.582Z,101962.81
2023-04-05T20:41:12.802Z,101958.75
2023-04-05T20:43:40.011Z,101954.56
2023-04-05T20:46:06.835Z,101960.28
2023-04-05T20:48:34.555Z,101950.47
2023-04-05T20:51:02.033Z,101950.53
2023-04-05T20:53:28.738Z,101948.28
2023-04-05T20:55:55.861Z,101948.78
2023-04-05T20:58:22.567Z,101936.25
2023-04-05T21:00:49.096Z,101936.44
2023-04-05T21:03:16.149Z,101941.81
2023-04-05T21:05:42.700Z,101937.69
2023-04-05T21:08:09.189Z,101935.88
2023-04-05T21:10:35.576Z,101937.44
2023-04-05T21:13:02.027Z,101940.59
2023-04-05T21:15:31.214Z,101932.94
2023-04-05T21:18:00.635Z,101933.72
2023-04-05T21:20:30.865Z,101933.13
2023-04-05T21:22:58.299Z,101931.84
2023-04-05T21:25:24.844Z,101928.72
2023-04-05T21:27:51.695Z,101933.22
2023-04-05T21:30:18.304Z,101921.56
2023-04-05T21:32:44.942Z,101922.66
2023-04-05T21:35:11.828Z,101920.69
2023-04-05T21:37:38.350Z,101932.72
2023-04-05T21:40:05.327Z,101925.13
2023-04-05T21:42:31.856Z,101918.75
2023-04-05T21:44:58.165Z,101914.97
2023-04-05T21:47:24.840Z,101917.91
2023-04-05T21:49:52.728Z,101918.84
2023-04-05T21:52:19.149Z,101919.38
2023-04-05T21:54:46.020Z,101913.22
2023-04-05T21:57:12.440Z,101914.09
2023-04-05T21:59:38.933Z,101917.13
2023-04-05T22:02:06.817Z,101915.28
2023-04-05T22:04:33.708Z,101898.06
2023-04-05T22:07:00.273Z,101907.09
2023-04-05T22:09:28.112Z,101897.81
2023-04-05T22:11:54.791Z,101896.25
2023-04-05T22:14:21.240Z,101893.31
2023-04-05T22:16:47.975Z,101891.91
2023-04-05T22:19:14.544Z,101891.94
2023-04-05T22:21:41.267Z,101891.22
2023-04-05T22:24:08.830Z,101889.75
2023-04-05T22:26:35.655Z,101889.75
2023-04-05T22:29:02.693Z,101888.22
2023-04-05T22:31:29.321Z,101889.78
2023-04-05T22:33:56.249Z,101885.22
2023-04-05T22:36:22.763Z,101895.88
2023-04-05T22:38:49.325Z,101892.91
2023-04-05T22:41:16.761Z,101901.25
2023-04-05T22:43:43.179Z,101883.81
2023-04-05T22:46:10.421Z,101897.50
2023-04-05T22:48:37.098Z,101886.03
2023-04-05T22:51:03.738Z,101891.34
2023-04-05T22:53:30.577Z,101885.13
2023-04-05T22:55:57.136Z,101888.59
2023-04-05T22:58:23.512Z,101877.91
2023-04-05T23:00:50.177Z,101878.91
2023-04-05T23:03:16.564Z,101877.78
2023-04-05T23:05:43.088Z,101869.41
2023-04-05T23:08:09.524Z,101872.50
2023-04-05T23:10:35.973Z,101864.84
2023-04-05T23:13:02.379Z,101859.84
2023-04-05T23:15:28.746Z,101865.50
2023-04-05T23:17:55.412Z,101852.66
2023-04-05T23:20:21.876Z,101859.47
2023-04-05T23:22:48.305Z,101860.53
2023-04-05T23:25:14.791Z,101851.72
2023-04-05T23:27:41.189Z,101842.59
2023-04-05T23:30:08.115Z,101835.00
2023-04-05T23:32:34.571Z,101847.84
2023-04-05T23:35:01.000Z,101852.53
2023-04-05T23:37:27.390Z,101840.38
2023-04-05T23:39:53.753Z,101839.66
2023-04-05T23:42:20.156Z,101835.97
2023-04-05T23:44:46.578Z,101835.53
2023-04-05T23:47:12.978Z,101839.22
2023-04-05T23:49:39.369Z,101830.09
2023-04-05T23:52:05.833Z,101825.97
2023-04-05T23:54:32.231Z,101825.22
2023-04-05T23:56:58.694Z,101824.41
2023-04-05T23:59:25.556Z,101826.75
